createdAt,value
2018-07-14T00:01:47.387Z,101828.45
2018-07-14T00:04:16.750Z,101829.53
2018-07-14T00:06:46.087Z,101829.34
2018-07-14T00:09:15.595Z,101832.52
2018-07-14T00:11:44.945Z,101828.78
2018-07-14T00:14:14.313Z,101828.05
2018-07-14T00:16:43.727Z,101835.56
2018-07-14T00:19:13.767Z,101833.45
2018-07-14T00:21:43.097Z,101831.16
2018-07-14T00:24:12.445Z,101828.45
2018-07-14T00:26:41.943Z,101828.19
2018-07-14T00:29:11.270Z,101831.86
2018-07-14T00:31:40.642Z,101828.71
2018-07-14T00:34:10.049Z,101833.30
2018-07-14T00:36:39.363Z,101828.81
2018-07-14T00:39:08.729Z,101835.52
2018-07-14T00:41:38.100Z,101833.08
2018-07-14T00:44:07.368Z,101828.18
2018-07-14T00:46:36.691Z,101823.22
2018-07-14T00:49:06.259Z,101828.52
2018-07-14T00:51:35.630Z,101828.00
2018-07-14T00:54:05.025Z,101825.50
2018-07-14T00:56:34.394Z,101827.33
2018-07-14T00:59:03.706Z,101828.88
2018-07-14T01:01:32.979Z,101824.77
2018-07-14T01:04:02.386Z,101826.75
2018-07-14T01:06:31.678Z,101824.83
2018-07-14T01:09:00.974Z,101824.53
2018-07-14T01:11:30.290Z,101824.31
2018-07-14T01:13:59.577Z,101826.17
2018-07-14T01:16:28.870Z,101825.19
2018-07-14T01:18:58.208Z,101824.89
2018-07-14T01:21:27.527Z,101836.28
2018-07-14T01:23:56.573Z,101823.92
2018-07-14T01:26:26.207Z,101826.72
2018-07-14T01:28:55.850Z,101817.22
2018-07-14T01:31:25.189Z,101829.61
2018-07-14T01:33:54.519Z,101829.55
2018-07-14T01:36:23.906Z,101829.73
2018-07-14T01:38:53.343Z,101827.55
2018-07-14T01:41:22.741Z,101824.34
2018-07-14T01:43:51.806Z,101823.98
2018-07-14T01:46:21.125Z,101830.07
2018-07-14T01:48:50.820Z,101825.72
2018-07-14T01:51:20.153Z,101827.73
2018-07-14T01:53:49.507Z,101828.83
2018-07-14T01:56:18.856Z,101826.23
2018-07-14T01:58:48.214Z,101828.83
2018-07-14T02:01:17.556Z,101832.63
2018-07-14T02:03:46.962Z,101833.89
2018-07-14T02:06:16.330Z,101834.06
2018-07-14T02:08:45.667Z,101831.00
2018-07-14T02:11:15.676Z,101830.95
2018-07-14T02:13:45.014Z,101828.62
2018-07-14T02:16:14.391Z,101829.70
2018-07-14T02:18:43.716Z,101832.26
2018-07-14T02:21:13.028Z,101821.72
2018-07-14T02:23:42.341Z,101831.85
2018-07-14T02:26:11.690Z,101828.31
2018-07-14T02:28:40.991Z,101817.00
2018-07-14T02:31:10.331Z,101820.28
2018-07-14T02:33:40.195Z,101823.86
2018-07-14T02:36:09.535Z,101825.05
2018-07-14T02:38:38.848Z,101827.56
2018-07-14T02:41:08.271Z,101832.26
2018-07-14T02:43:37.628Z,101829.03
2018-07-14T02:46:07.042Z,101833.42
2018-07-14T02:48:36.407Z,101830.48
2018-07-14T02:51:05.758Z,101826.97
2018-07-14T02:53:35.149Z,101821.42
2018-07-14T02:56:04.622Z,101825.31
2018-07-14T02:58:33.952Z,101827.75
2018-07-14T03:01:03.323Z,101833.97
2018-07-14T03:03:32.748Z,101828.64
2018-07-14T03:06:01.843Z,101830.23
2018-07-14T03:08:31.318Z,101827.03
2018-07-14T03:11:00.678Z,101831.79
2018-07-14T03:13:30.007Z,101829.56
2018-07-14T03:15:59.382Z,101834.05
2018-07-14T03:18:29.265Z,101830.91
2018-07-14T03:20:58.620Z,101835.75
2018-07-14T03:23:27.974Z,101837.51
2018-07-14T03:25:57.330Z,101835.84
2018-07-14T03:28:26.597Z,101841.12
2018-07-14T03:30:55.932Z,101832.05
2018-07-14T03:33:25.273Z,101835.45
2018-07-14T03:35:54.605Z,101835.46
2018-07-14T03:38:24.084Z,101842.31
2018-07-14T03:40:53.787Z,101834.30
2018-07-14T03:43:23.149Z,101844.73
2018-07-14T03:45:52.516Z,101842.00
2018-07-14T03:48:21.912Z,101839.27
2018-07-14T03:50:51.448Z,101841.15
2018-07-14T03:53:20.726Z,101846.44
2018-07-14T03:55:50.111Z,101842.17
2018-07-14T03:58:19.402Z,101848.66
2018-07-14T04:00:48.706Z,101844.03
2018-07-14T04:03:21.651Z,101847.28
2018-07-14T04:05:53.220Z,101852.28
2018-07-14T04:08:25.299Z,101851.22
2018-07-14T04:10:54.604Z,101847.88
2018-07-14T04:13:24.321Z,101853.64
2018-07-14T04:15:53.666Z,101844.08
2018-07-14T04:18:22.945Z,101847.52
2018-07-14T04:20:52.294Z,101848.33
2018-07-14T04:23:22.135Z,101844.86
2018-07-14T04:25:51.462Z,101848.70
2018-07-14T04:28:20.759Z,101843.53
2018-07-14T04:30:50.041Z,101848.95
2018-07-14T04:33:19.351Z,101845.85
2018-07-14T04:35:49.179Z,101848.33
2018-07-14T04:38:18.314Z,101844.59
2018-07-14T04:40:47.658Z,101851.83
2018-07-14T04:43:16.982Z,101850.03
2018-07-14T04:45:46.696Z,101847.05
2018-07-14T04:48:16.021Z,101851.83
2018-07-14T04:50:45.467Z,101852.59
2018-07-14T04:53:14.927Z,101844.86
2018-07-14T04:55:44.159Z,101845.38
2018-07-14T04:58:13.493Z,101848.81
2018-07-14T05:00:42.810Z,101855.15
2018-07-14T05:03:11.882Z,101853.69
2018-07-14T05:05:41.195Z,101848.05
2018-07-14T05:08:11.187Z,101855.66
2018-07-14T05:10:40.523Z,101849.94
2018-07-14T05:13:09.876Z,101844.05
2018-07-14T05:15:39.224Z,101849.41
2018-07-14T05:18:08.552Z,101852.52
2018-07-14T05:20:37.848Z,101848.97
2018-07-14T05:23:07.233Z,101843.59
2018-07-14T05:25:36.600Z,101849.56
2018-07-14T05:28:06.032Z,101849.86
2018-07-14T05:30:35.477Z,101846.85
2018-07-14T05:33:04.876Z,101855.89
2018-07-14T05:35:34.820Z,101854.00
2018-07-14T05:38:04.466Z,101855.23
2018-07-14T05:40:33.848Z,101856.87
2018-07-14T05:43:03.115Z,101851.92
2018-07-14T05:45:32.535Z,101855.05
2018-07-14T05:48:01.854Z,101855.55
2018-07-14T05:50:31.119Z,101860.81
2018-07-14T05:53:00.835Z,101860.87
2018-07-14T05:55:30.184Z,101862.67
2018-07-14T05:57:59.705Z,101871.64
2018-07-14T06:00:29.096Z,101870.66
2018-07-14T06:02:58.428Z,101876.14
2018-07-14T06:05:27.735Z,101878.55
2018-07-14T06:07:57.079Z,101879.22
2018-07-14T06:10:26.463Z,101883.13
2018-07-14T06:12:55.758Z,101879.73
2018-07-14T06:15:25.436Z,101874.18
2018-07-14T06:17:54.750Z,101867.40
2018-07-14T06:20:24.037Z,101872.17
2018-07-14T06:22:53.382Z,101867.59
2018-07-14T06:25:22.712Z,101866.00
2018-07-14T06:27:52.043Z,101879.20
2018-07-14T06:30:21.858Z,101879.31
2018-07-14T06:32:51.265Z,101883.33
2018-07-14T06:35:20.589Z,101879.55
2018-07-14T06:37:49.955Z,101885.77
2018-07-14T06:40:19.263Z,101891.78
2018-07-14T06:42:48.554Z,101891.05
2018-07-14T06:45:17.874Z,101886.95
2018-07-14T06:47:47.198Z,101890.93
2018-07-14T06:50:16.472Z,101885.36
2018-07-14T06:52:45.941Z,101888.41
2018-07-14T06:55:15.312Z,101881.80
2018-07-14T06:57:44.738Z,101876.96
2018-07-14T07:00:24.503Z,101885.98
2018-07-14T07:02:53.849Z,101893.97
2018-07-14T07:05:23.242Z,101892.34
2018-07-14T07:07:52.564Z,101890.87
2018-07-14T07:10:21.916Z,101888.32
2018-07-14T07:12:51.209Z,101890.26
2018-07-14T07:15:20.605Z,101891.08
2018-07-14T07:17:49.965Z,101899.64
2018-07-14T07:20:19.711Z,101901.19
2018-07-14T07:22:49.031Z,101903.22
2018-07-14T07:25:18.367Z,101904.45
2018-07-14T07:27:47.791Z,101901.58
2018-07-14T07:30:17.247Z,101901.02
2018-07-14T07:32:46.743Z,101902.13
2018-07-14T07:35:15.941Z,101903.33
2018-07-14T07:37:45.426Z,101904.23
2018-07-14T07:40:14.804Z,101902.09
2018-07-14T07:42:44.352Z,101909.86
2018-07-14T07:45:13.693Z,101916.15
2018-07-14T07:47:43.052Z,101912.56
2018-07-14T07:50:12.460Z,101915.83
2018-07-14T07:52:41.608Z,101912.66
2018-07-14T07:55:10.931Z,101916.86
2018-07-14T07:57:40.315Z,101920.27
2018-07-14T08:00:09.859Z,101925.17
2018-07-14T08:02:39.404Z,101913.69
2018-07-14T08:05:09.020Z,101915.58
2018-07-14T08:07:38.410Z,101922.20
2018-07-14T08:10:07.986Z,101916.34
2018-07-14T08:12:37.400Z,101917.00
2018-07-14T08:15:06.786Z,101915.64
2018-07-14T08:17:36.187Z,101904.41
2018-07-14T08:20:05.907Z,101909.68
2018-07-14T08:22:35.240Z,101902.75
2018-07-14T08:25:07.443Z,101903.63
2018-07-14T08:27:36.710Z,101901.67
2018-07-14T08:30:06.382Z,101899.04
2018-07-14T08:32:35.723Z,101906.61
2018-07-14T08:35:05.190Z,101905.75
2018-07-14T08:37:34.591Z,101909.86
2018-07-14T08:40:04.206Z,101905.72
2018-07-14T08:42:33.593Z,101905.41
2018-07-14T08:45:02.904Z,101904.29
2018-07-14T08:47:32.542Z,101905.19
2018-07-14T08:50:01.908Z,101899.02
2018-07-14T08:52:31.307Z,101899.86
2018-07-14T08:55:00.772Z,101899.96
2018-07-14T08:57:30.661Z,101896.04
2018-07-14T09:00:00.037Z,101903.34
2018-07-14T09:02:29.684Z,101901.42
2018-07-14T09:04:59.125Z,101897.98
2018-07-14T09:07:28.549Z,101901.16
2018-07-14T09:09:58.119Z,101909.77
2018-07-14T09:12:27.957Z,101901.13
2018-07-14T09:14:57.394Z,101904.12
2018-07-14T09:17:26.782Z,101903.77
2018-07-14T09:19:56.198Z,101903.78
2018-07-14T09:22:25.583Z,101907.77
2018-07-14T09:24:54.919Z,101911.23
2018-07-14T09:27:24.269Z,101914.09
2018-07-14T09:29:53.586Z,101916.11
2018-07-14T09:32:23.319Z,101907.99
2018-07-14T09:34:52.675Z,101912.23
2018-07-14T09:37:21.980Z,101919.91
2018-07-14T09:39:51.382Z,101914.87
2018-07-14T09:42:20.743Z,101916.16
2018-07-14T09:44:50.091Z,101912.55
2018-07-14T09:47:19.434Z,101918.27
2018-07-14T09:49:48.783Z,101919.00
2018-07-14T09:52:18.143Z,101911.94
2018-07-14T09:54:48.072Z,101906.84
2018-07-14T09:57:17.376Z,101903.34
2018-07-14T09:59:46.731Z,101909.01
2018-07-14T10:02:16.183Z,101902.53
2018-07-14T10:04:45.521Z,101908.36
2018-07-14T10:07:14.835Z,101911.55
2018-07-14T10:09:44.204Z,101917.13
2018-07-14T10:12:13.633Z,101914.36
2018-07-14T10:14:42.997Z,101919.05
2018-07-14T10:17:13.062Z,101915.37
2018-07-14T10:19:42.413Z,101911.68
2018-07-14T10:22:11.822Z,101910.50
2018-07-14T10:24:41.138Z,101902.57
2018-07-14T10:27:10.581Z,101898.44
2018-07-14T10:29:40.123Z,101903.12
2018-07-14T10:32:10.915Z,101909.28
2018-07-14T10:34:40.268Z,101915.37
2018-07-14T10:37:09.804Z,101910.83
2018-07-14T10:39:39.417Z,101915.34
2018-07-14T10:42:08.828Z,101913.84
2018-07-14T10:44:38.241Z,101915.31
2018-07-14T10:47:07.707Z,101911.58
2018-07-14T10:49:37.128Z,101908.24
2018-07-14T10:52:06.779Z,101915.36
2018-07-14T10:54:36.246Z,101918.27
2018-07-14T10:57:05.798Z,101909.99
2018-07-14T10:59:35.174Z,101911.30
2018-07-14T11:02:04.759Z,101911.47
2018-07-14T11:04:34.206Z,101915.75
2018-07-14T11:07:06.502Z,101913.17
2018-07-14T11:09:36.007Z,101914.05
2018-07-14T11:12:05.385Z,101911.81
2018-07-14T11:14:34.845Z,101918.08
2018-07-14T11:17:04.579Z,101913.05
2018-07-14T11:19:33.853Z,101914.38
2018-07-14T11:22:04.399Z,101909.97
2018-07-14T11:24:33.749Z,101908.52
2018-07-14T11:27:03.225Z,101904.80
2018-07-14T11:29:32.660Z,101907.51
2018-07-14T11:32:02.083Z,101905.75
2018-07-14T11:34:31.469Z,101905.14
2018-07-14T11:37:00.907Z,101897.68
2018-07-14T11:39:30.485Z,101897.03
2018-07-14T11:41:59.904Z,101887.16
2018-07-14T11:44:29.549Z,101883.30
2018-07-14T11:47:00.155Z,101884.81
2018-07-14T11:49:30.352Z,101880.20
2018-07-14T11:52:00.180Z,101875.30
2018-07-14T11:54:29.902Z,101876.13
2018-07-14T11:56:59.478Z,101863.41
2018-07-14T11:59:29.138Z,101866.12
2018-07-14T12:01:58.687Z,101873.29
2018-07-14T12:04:28.564Z,101871.75
2018-07-14T12:06:58.078Z,101859.26
2018-07-14T12:09:27.450Z,101860.95
2018-07-14T12:11:56.981Z,101858.53
2018-07-14T12:14:26.420Z,101848.37
2018-07-14T12:16:55.913Z,101843.80
2018-07-14T12:19:25.307Z,101851.59
2018-07-14T12:21:54.784Z,101841.28
2018-07-14T12:24:24.159Z,101840.05
2018-07-14T12:26:53.827Z,101839.89
2018-07-14T12:29:23.159Z,101835.47
2018-07-14T12:31:52.505Z,101831.11
2018-07-14T12:34:22.199Z,101832.98
2018-07-14T12:36:52.249Z,101831.63
2018-07-14T12:39:21.731Z,101828.00
2018-07-14T12:41:51.243Z,101821.60
2018-07-14T12:44:20.569Z,101814.75
2018-07-14T12:46:50.109Z,101818.05
2018-07-14T12:49:19.677Z,101809.88
2018-07-14T12:51:49.195Z,101811.30
2018-07-14T12:54:18.599Z,101814.37
2018-07-14T12:56:47.976Z,101813.56
2018-07-14T12:59:17.632Z,101813.16
2018-07-14T13:01:47.052Z,101806.70
2018-07-14T13:04:16.455Z,101801.09
2018-07-14T13:06:45.924Z,101805.51
2018-07-14T13:09:15.518Z,101798.01
2018-07-14T13:11:45.232Z,101796.58
2018-07-14T13:14:14.730Z,101794.27
2018-07-14T13:16:44.202Z,101789.06
2018-07-14T13:19:13.610Z,101789.59
2018-07-14T13:21:43.056Z,101780.52
2018-07-14T13:24:12.464Z,101783.10
2018-07-14T13:26:41.876Z,101783.45
2018-07-14T13:29:11.300Z,101784.09
2018-07-14T13:31:40.803Z,101785.50
2018-07-14T13:34:10.538Z,101782.61
2018-07-14T13:36:39.963Z,101780.79
2018-07-14T13:39:09.279Z,101786.00
2018-07-14T13:41:38.660Z,101784.67
2018-07-14T13:44:08.053Z,101773.34
2018-07-14T13:46:37.398Z,101775.30
2018-07-14T13:49:06.806Z,101773.72
2018-07-14T13:51:36.207Z,101781.44
2018-07-14T13:54:05.554Z,101768.44
2018-07-14T13:56:35.422Z,101768.59
2018-07-14T13:59:04.733Z,101761.16
2018-07-14T14:01:34.139Z,101760.16
2018-07-14T14:04:03.515Z,101761.47
2018-07-14T14:06:32.925Z,101758.26
2018-07-14T14:09:02.403Z,101751.76
2018-07-14T14:11:31.804Z,101749.63
2018-07-14T14:14:01.233Z,101744.66
2018-07-14T14:16:30.470Z,101734.70
2018-07-14T14:19:00.165Z,101737.86
2018-07-14T14:21:29.615Z,101735.48
2018-07-14T14:23:59.010Z,101732.97
2018-07-14T14:26:28.884Z,101730.98
2018-07-14T14:28:58.154Z,101726.98
2018-07-14T14:31:27.473Z,101723.61
2018-07-14T14:33:56.847Z,101721.97
2018-07-14T14:36:26.155Z,101722.55
2018-07-14T14:38:55.489Z,101731.06
2018-07-14T14:41:24.911Z,101720.00
2018-07-14T14:43:54.161Z,101719.92
2018-07-14T14:46:23.487Z,101722.48
2018-07-14T14:48:52.854Z,101727.30
2018-07-14T14:51:22.199Z,101717.09
2018-07-14T14:53:51.514Z,101717.94
2018-07-14T14:56:20.796Z,101721.22
2018-07-14T14:58:50.630Z,101719.81
2018-07-14T15:01:19.927Z,101717.73
2018-07-14T15:03:49.842Z,101718.32
2018-07-14T15:06:19.193Z,101720.06
2018-07-14T15:08:48.431Z,101714.69
2018-07-14T15:11:17.948Z,101716.56
2018-07-14T15:13:47.291Z,101707.44
2018-07-14T15:16:16.590Z,101703.17
2018-07-14T15:18:45.930Z,101702.50
2018-07-14T15:21:15.222Z,101703.66
2018-07-14T15:23:44.551Z,101700.78
2018-07-14T15:26:13.999Z,101709.67
2018-07-14T15:28:43.367Z,101705.88
2018-07-14T15:31:12.708Z,101713.19
2018-07-14T15:33:42.141Z,101708.23
2018-07-14T15:36:11.469Z,101715.95
2018-07-14T15:38:40.774Z,101706.66
2018-07-14T15:41:09.976Z,101710.14
2018-07-14T15:43:39.301Z,101700.45
2018-07-14T15:46:08.622Z,101704.46
2018-07-14T15:48:38.352Z,101706.64
2018-07-14T15:51:07.685Z,101694.07
2018-07-14T15:53:36.953Z,101701.48
2018-07-14T15:56:06.955Z,101701.77
2018-07-14T15:58:36.270Z,101699.59
2018-07-14T16:01:05.638Z,101699.33
2018-07-14T16:03:34.990Z,101697.02
2018-07-14T16:06:04.379Z,101690.95
2018-07-14T16:08:33.707Z,101691.84
2018-07-14T16:11:03.627Z,101691.23
2018-07-14T16:13:32.907Z,101694.98
2018-07-14T16:16:02.245Z,101679.25
2018-07-14T16:18:31.606Z,101681.37
2018-07-14T16:21:00.882Z,101681.37
2018-07-14T16:23:30.194Z,101685.47
2018-07-14T16:25:59.547Z,101681.11
2018-07-14T16:28:28.906Z,101682.10
2018-07-14T16:30:58.209Z,101682.50
2018-07-14T16:33:27.808Z,101685.12
2018-07-14T16:35:57.137Z,101681.84
2018-07-14T16:38:26.428Z,101680.89
2018-07-14T16:40:55.773Z,101680.31
2018-07-14T16:43:25.093Z,101675.55
2018-07-14T16:45:54.500Z,101675.61
2018-07-14T16:48:23.969Z,101676.66
2018-07-14T16:50:53.526Z,101681.87
2018-07-14T16:53:22.842Z,101675.59
2018-07-14T16:55:52.480Z,101676.38
2018-07-14T16:58:21.749Z,101675.62
2018-07-14T17:00:51.029Z,101675.70
2018-07-14T17:03:20.589Z,101682.38
2018-07-14T17:05:49.958Z,101681.09
2018-07-14T17:08:20.111Z,101685.86
2018-07-14T17:10:49.442Z,101687.41
2018-07-14T17:13:18.915Z,101674.09
2018-07-14T17:15:48.352Z,101688.16
2018-07-14T17:18:17.755Z,101682.70
2018-07-14T17:20:47.325Z,101685.71
2018-07-14T17:23:16.606Z,101680.25
2018-07-14T17:25:45.935Z,101677.86
2018-07-14T17:28:15.256Z,101677.92
2018-07-14T17:30:44.666Z,101680.70
2018-07-14T17:33:13.978Z,101687.02
2018-07-14T17:35:47.680Z,101681.03
2018-07-14T17:38:17.102Z,101685.41
2018-07-14T17:40:46.510Z,101684.64
2018-07-14T17:43:15.912Z,101683.39
2018-07-14T17:45:45.342Z,101679.27
2018-07-14T17:48:14.727Z,101681.57
2018-07-14T17:50:44.253Z,101682.25
2018-07-14T17:53:16.486Z,101676.77
2018-07-14T17:55:45.887Z,101672.72
2018-07-14T17:58:15.362Z,101682.36
2018-07-14T18:00:44.610Z,101678.74
2018-07-14T18:03:13.961Z,101680.58
2018-07-14T18:05:43.407Z,101674.47
2018-07-14T18:08:12.887Z,101681.06
2018-07-14T18:10:42.261Z,101679.17
2018-07-14T18:13:11.782Z,101680.61
2018-07-14T18:15:41.175Z,101671.02
2018-07-14T18:18:10.533Z,101673.42
2018-07-14T18:20:40.608Z,101673.69
2018-07-14T18:23:10.062Z,101675.24
2018-07-14T18:25:39.547Z,101678.05
2018-07-14T18:28:08.902Z,101674.23
2018-07-14T18:30:38.263Z,101679.22
2018-07-14T18:33:07.646Z,101684.98
2018-07-14T18:35:37.245Z,101686.19
2018-07-14T18:38:06.695Z,101681.91
2018-07-14T18:40:36.070Z,101680.17
2018-07-14T18:43:05.736Z,101679.98
2018-07-14T18:45:35.130Z,101687.02
2018-07-14T18:48:04.512Z,101688.70
2018-07-14T18:50:33.834Z,101683.35
2018-07-14T18:53:03.133Z,101686.70
2018-07-14T18:55:32.512Z,101688.59
2018-07-14T18:58:01.855Z,101697.48
2018-07-14T19:00:31.168Z,101698.36
2018-07-14T19:03:00.494Z,101694.58
2018-07-14T19:05:30.256Z,101694.87
2018-07-14T19:07:59.597Z,101695.47
2018-07-14T19:10:28.959Z,101697.38
2018-07-14T19:12:58.329Z,101695.28
2018-07-14T19:15:27.855Z,101696.58
2018-07-14T19:17:57.236Z,101697.40
2018-07-14T19:20:26.551Z,101698.55
2018-07-14T19:22:55.853Z,101695.38
2018-07-14T19:25:25.152Z,101699.72
2018-07-14T19:27:54.670Z,101697.93
2018-07-14T19:30:24.022Z,101693.72
2018-07-14T19:32:53.358Z,101694.04
2018-07-14T19:35:22.722Z,101696.17
2018-07-14T19:37:52.317Z,101694.91
2018-07-14T19:40:21.605Z,101701.70
2018-07-14T19:42:51.047Z,101693.94
2018-07-14T19:45:20.333Z,101694.37
2018-07-14T19:47:49.786Z,101695.88
2018-07-14T19:50:25.445Z,101697.14
2018-07-14T19:52:54.760Z,101698.15
2018-07-14T19:55:24.098Z,101700.19
2018-07-14T19:57:53.438Z,101705.84
2018-07-14T20:00:22.873Z,101701.28
2018-07-14T20:02:52.194Z,101700.74
2018-07-14T20:05:21.514Z,101692.91
2018-07-14T20:07:50.894Z,101698.20
2018-07-14T20:10:19.947Z,101696.07
2018-07-14T20:12:49.819Z,101697.23
2018-07-14T20:15:19.162Z,101691.30
2018-07-14T20:17:48.538Z,101691.73
2018-07-14T20:20:17.865Z,101691.23
2018-07-14T20:22:47.198Z,101699.87
2018-07-14T20:25:16.723Z,101691.66
2018-07-14T20:27:46.052Z,101691.86
2018-07-14T20:30:15.360Z,101688.44
2018-07-14T20:32:44.714Z,101693.00
2018-07-14T20:35:14.262Z,101695.61
2018-07-14T20:37:43.604Z,101703.69
2018-07-14T20:40:12.972Z,101700.59
2018-07-14T20:42:42.335Z,101701.05
2018-07-14T20:45:11.678Z,101707.52
2018-07-14T20:47:40.970Z,101712.92
2018-07-14T20:50:10.351Z,101710.27
2018-07-14T20:52:39.876Z,101705.42
2018-07-14T20:55:09.210Z,101699.67
2018-07-14T20:57:38.605Z,101706.25
2018-07-14T21:00:08.013Z,101707.22
2018-07-14T21:02:37.413Z,101706.38
2018-07-14T21:05:06.813Z,101702.67
2018-07-14T21:07:36.151Z,101702.46
2018-07-14T21:10:05.527Z,101705.45
2018-07-14T21:12:35.000Z,101699.38
2018-07-14T21:15:04.236Z,101705.97
2018-07-14T21:17:33.532Z,101699.91
2018-07-14T21:20:03.430Z,101697.27
2018-07-14T21:22:32.819Z,101706.47
2018-07-14T21:25:02.136Z,101700.03
2018-07-14T21:27:31.519Z,101696.02
2018-07-14T21:30:00.899Z,101701.09
2018-07-14T21:32:30.035Z,101702.66
2018-07-14T21:34:59.437Z,101700.25
2018-07-14T21:37:28.755Z,101694.01
2018-07-14T21:39:58.155Z,101697.80
2018-07-14T21:42:27.752Z,101700.91
2018-07-14T21:44:57.149Z,101698.79
2018-07-14T21:47:26.581Z,101702.61
2018-07-14T21:49:55.961Z,101711.39
2018-07-14T21:52:25.318Z,101707.67
2018-07-14T21:54:54.811Z,101711.50
2018-07-14T21:57:24.391Z,101710.84
2018-07-14T21:59:54.050Z,101707.67
2018-07-14T22:02:23.418Z,101718.06
2018-07-14T22:04:52.882Z,101722.72
2018-07-14T22:07:22.263Z,101715.70
2018-07-14T22:09:51.315Z,101719.83
2018-07-14T22:12:20.749Z,101722.14
2018-07-14T22:14:50.116Z,101724.45
2018-07-14T22:17:19.382Z,101719.94
2018-07-14T22:19:50.943Z,101722.69
2018-07-14T22:22:20.318Z,101723.12
2018-07-14T22:24:49.602Z,101726.93
2018-07-14T22:27:19.327Z,101726.66
2018-07-14T22:29:48.695Z,101719.80
2018-07-14T22:32:18.044Z,101723.49
2018-07-14T22:34:47.487Z,101721.17
2018-07-14T22:37:16.818Z,101722.11
2018-07-14T22:39:46.158Z,101715.66
2018-07-14T22:42:15.518Z,101718.63
2018-07-14T22:44:44.873Z,101716.64
2018-07-14T22:47:15.246Z,101714.91
2018-07-14T22:49:44.887Z,101714.65
2018-07-14T22:52:14.188Z,101716.80
2018-07-14T22:54:43.560Z,101719.19
2018-07-14T22:57:12.935Z,101721.70
2018-07-14T22:59:42.249Z,101720.00
2018-07-14T23:02:11.531Z,101719.20
2018-07-14T23:04:41.017Z,101709.57
2018-07-14T23:07:10.325Z,101708.11
2018-07-14T23:09:39.700Z,101711.02
2018-07-14T23:12:09.371Z,101714.56
2018-07-14T23:14:38.994Z,101713.59
2018-07-14T23:17:08.291Z,101710.66
2018-07-14T23:19:37.658Z,101718.86
2018-07-14T23:22:07.116Z,101718.80
2018-07-14T23:24:36.460Z,101720.45
2018-07-14T23:27:05.759Z,101715.98
2018-07-14T23:29:35.137Z,101709.58
2018-07-14T23:32:04.504Z,101708.08
2018-07-14T23:34:34.030Z,101709.98
2018-07-14T23:37:03.371Z,101702.62
2018-07-14T23:39:32.790Z,101705.64
2018-07-14T23:42:03.216Z,101704.92
2018-07-14T23:44:32.499Z,101708.58
2018-07-14T23:47:01.876Z,101709.30
2018-07-14T23:49:31.195Z,101708.37
2018-07-14T23:52:00.463Z,101709.55
2018-07-14T23:54:29.767Z,101710.21
2018-07-14T23:56:59.261Z,101708.84
2018-07-14T23:59:28.592Z,101711.19
